createdAt,value
2018-05-09T00:00:15.540Z,19.2
2018-05-09T00:01:05.771Z,19.2
2018-05-09T00:01:55.882Z,19.2
2018-05-09T00:02:46.699Z,19.1
2018-05-09T00:03:36.550Z,19.2
2018-05-09T00:04:25.568Z,19.2
2018-05-09T00:05:16.645Z,19.2
2018-05-09T00:06:06.963Z,19.1
2018-05-09T00:06:56.736Z,19.1
2018-05-09T00:07:46.531Z,19.2
2018-05-09T00:08:37.146Z,19.1
2018-05-09T00:09:26.441Z,19.1
2018-05-09T00:10:16.833Z,19.1
2018-05-09T00:11:07.092Z,19.1
2018-05-09T00:11:57.673Z,19.1
2018-05-09T00:12:46.320Z,19.1
2018-05-09T00:13:37.281Z,19.1
2018-05-09T00:14:27.344Z,19.1
2018-05-09T00:15:16.886Z,19.1
2018-05-09T00:16:07.278Z,19.1
2018-05-09T00:16:57.256Z,19.1
2018-05-09T00:17:47.868Z,19.1
2018-05-09T00:18:37.091Z,19.1
2018-05-09T00:19:27.285Z,19.1
2018-05-09T00:20:17.234Z,19.1
2018-05-09T00:21:07.569Z,19.1
2018-05-09T00:21:57.932Z,19.1
2018-05-09T00:22:48.248Z,19.1
2018-05-09T00:23:37.907Z,19.1
2018-05-09T00:24:27.587Z,19.1
2018-05-09T00:25:18.242Z,19.1
2018-05-09T00:26:07.428Z,19.1
2018-05-09T00:26:58.063Z,19.1
2018-05-09T00:27:47.802Z,19.1
2018-05-09T00:28:38.460Z,19.1
2018-05-09T00:29:27.729Z,19.1
2018-05-09T00:30:18.672Z,19.1
2018-05-09T00:31:08.731Z,19.1
2018-05-09T00:31:58.153Z,19.1
2018-05-09T00:32:48.259Z,19.1
2018-05-09T00:33:38.830Z,19.1
2018-05-09T00:34:29.115Z,19.1
2018-05-09T00:35:18.710Z,19.1
2018-05-09T00:36:08.481Z,19.1
2018-05-09T00:36:59.056Z,19.1
2018-05-09T00:37:48.893Z,19.1
2018-05-09T00:38:38.390Z,19.1
2018-05-09T00:39:28.713Z,19.1
2018-05-09T00:40:19.320Z,19.1
2018-05-09T00:41:09.122Z,19.1
2018-05-09T00:41:59.192Z,19.1
2018-05-09T00:42:49.533Z,19.1
2018-05-09T00:43:39.067Z,19.1
2018-05-09T00:44:30.079Z,19.1
2018-05-09T00:45:18.911Z,19.1
2018-05-09T00:46:09.884Z,19.1
2018-05-09T00:46:59.591Z,19.1
2018-05-09T00:47:49.927Z,19.1
2018-05-09T00:48:40.005Z,19.1
2018-05-09T00:49:30.423Z,19.1
2018-05-09T00:50:20.774Z,19.1
2018-05-09T00:51:09.123Z,19.1
2018-05-09T00:51:59.719Z,19.1
2018-05-09T00:52:49.859Z,19.1
2018-05-09T00:53:40.369Z,19.1
2018-05-09T00:54:30.174Z,19.1
2018-05-09T00:55:20.321Z,19.1
2018-05-09T00:56:10.304Z,19.1
2018-05-09T00:57:00.731Z,19.1
2018-05-09T00:57:50.185Z,19.1
2018-05-09T00:58:40.286Z,19.1
2018-05-09T00:59:29.968Z,19.1
2018-05-09T01:00:21.169Z,19.1
2018-05-09T01:01:10.906Z,19.1
2018-05-09T01:02:01.036Z,19.1
2018-05-09T01:02:51.073Z,19.1
2018-05-09T01:03:40.982Z,19.1
2018-05-09T01:04:31.174Z,19.1
2018-05-09T01:05:21.229Z,19.1
2018-05-09T01:06:11.596Z,19.1
2018-05-09T01:07:01.646Z,19.1
2018-05-09T01:07:50.661Z,19.1
2018-05-09T01:08:40.651Z,19.1
2018-05-09T01:09:31.035Z,19.1
2018-05-09T01:10:21.319Z,19.1
2018-05-09T01:11:11.688Z,19
2018-05-09T01:12:01.482Z,19
2018-05-09T01:12:50.987Z,19
2018-05-09T01:13:41.586Z,19.1
2018-05-09T01:14:31.804Z,19
2018-05-09T01:15:21.500Z,19
2018-05-09T01:16:12.071Z,19
2018-05-09T01:17:02.105Z,19
2018-05-09T01:17:51.754Z,19
2018-05-09T01:18:42.008Z,19
2018-05-09T01:19:32.365Z,19
2018-05-09T01:20:22.181Z,19
2018-05-09T01:21:12.768Z,19
2018-05-09T01:22:02.555Z,19
2018-05-09T01:22:52.045Z,19
2018-05-09T01:23:42.920Z,19
2018-05-09T01:24:32.251Z,19
2018-05-09T01:25:22.497Z,19
2018-05-09T01:26:12.394Z,19
2018-05-09T01:27:03.255Z,19
2018-05-09T01:27:52.117Z,19
2018-05-09T01:28:43.035Z,19
2018-05-09T01:29:32.051Z,19
2018-05-09T01:30:23.455Z,19
2018-05-09T01:31:13.222Z,19
2018-05-09T01:32:03.072Z,19
2018-05-09T01:32:53.368Z,18.9
2018-05-09T01:33:43.727Z,19
2018-05-09T01:34:33.828Z,19
2018-05-09T01:35:23.618Z,19
2018-05-09T01:36:12.482Z,19
2018-05-09T01:37:03.690Z,19
2018-05-09T01:37:53.211Z,19
2018-05-09T01:38:43.259Z,19
2018-05-09T01:39:33.931Z,19
2018-05-09T01:40:23.671Z,18.9
2018-05-09T01:41:12.883Z,19
2018-05-09T01:42:03.860Z,19
2018-05-09T01:42:53.900Z,18.9
2018-05-09T01:43:44.481Z,19
2018-05-09T01:44:32.878Z,19
2018-05-09T01:45:23.804Z,19
2018-05-09T01:46:14.469Z,18.9
2018-05-09T01:47:04.191Z,19
2018-05-09T01:47:54.554Z,18.9
2018-05-09T01:48:44.626Z,18.9
2018-05-09T01:49:33.847Z,19
2018-05-09T01:50:23.358Z,18.9
2018-05-09T01:51:13.385Z,18.9
2018-05-09T01:52:04.885Z,19
2018-05-09T01:52:54.991Z,18.9
2018-05-09T01:53:45.040Z,18.9
2018-05-09T01:54:35.294Z,18.9
2018-05-09T01:55:24.891Z,18.9
2018-05-09T01:56:14.633Z,18.9
2018-05-09T01:57:04.965Z,18.9
2018-05-09T01:57:55.112Z,18.9
2018-05-09T01:58:45.027Z,18.9
2018-05-09T01:59:35.429Z,18.9
2018-05-09T02:00:25.739Z,18.9
2018-05-09T02:01:15.881Z,18.9
2018-05-09T02:02:05.621Z,18.9
2018-05-09T02:02:55.635Z,18.9
2018-05-09T02:03:46.005Z,18.9
2018-05-09T02:04:35.778Z,18.9
2018-05-09T02:05:25.003Z,18.9
2018-05-09T02:06:17.330Z,18.9
2018-05-09T02:07:05.759Z,18.9
2018-05-09T02:07:56.078Z,18.9
2018-05-09T02:08:46.111Z,18.9
2018-05-09T02:09:35.912Z,18.9
2018-05-09T02:10:26.338Z,18.9
2018-05-09T02:11:16.298Z,18.9
2018-05-09T02:12:06.394Z,18.9
2018-05-09T02:12:56.777Z,18.9
2018-05-09T02:13:46.239Z,18.9
2018-05-09T02:14:36.312Z,18.9
2018-05-09T02:15:26.329Z,18.9
2018-05-09T02:16:16.745Z,18.9
2018-05-09T02:17:07.050Z,18.9
2018-05-09T02:17:56.834Z,18.9
2018-05-09T02:18:46.617Z,18.9
2018-05-09T02:19:36.636Z,18.9
2018-05-09T02:20:26.480Z,18.9
2018-05-09T02:21:17.339Z,18.9
2018-05-09T02:22:07.431Z,18.9
2018-05-09T02:22:56.611Z,18.9
2018-05-09T02:23:47.287Z,18.9
2018-05-09T02:24:37.588Z,18.9
2018-05-09T02:25:26.315Z,18.9
2018-05-09T02:26:17.721Z,18.9
2018-05-09T02:27:07.554Z,18.9
2018-05-09T02:27:57.621Z,18.9
2018-05-09T02:28:47.944Z,18.9
2018-05-09T02:29:37.441Z,18.9
2018-05-09T02:30:26.962Z,18.9
2018-05-09T02:31:19.484Z,18.9
2018-05-09T02:32:07.104Z,18.9
2018-05-09T02:32:57.165Z,18.9
2018-05-09T02:33:47.556Z,18.9
2018-05-09T04:37:24.449Z,18.8
2018-05-09T04:38:14.528Z,18.8
2018-05-09T04:54:55.362Z,18.6
2018-05-09T04:56:35.722Z,18.6
2018-05-09T04:57:25.504Z,18.6
2018-05-09T04:59:05.425Z,18.6
2018-05-09T04:59:55.687Z,18.6
2018-05-09T05:00:46.076Z,18.6
2018-05-09T05:19:57.252Z,18.8
2018-05-09T05:20:47.496Z,18.8
2018-05-09T05:21:37.527Z,18.8
2018-05-09T05:23:17.146Z,18.8
2018-05-09T05:24:07.518Z,18.8
2018-05-09T05:24:57.828Z,18.8
2018-05-09T05:25:48.208Z,18.8
2018-05-09T05:26:37.258Z,18.8
2018-05-09T05:27:27.809Z,18.8
2018-05-09T05:28:17.821Z,18.8
2018-05-09T05:29:08.162Z,18.8
2018-05-09T05:29:58.540Z,18.8
2018-05-09T05:30:48.251Z,18.8
2018-05-09T05:31:38.625Z,18.8
2018-05-09T05:32:28.120Z,18.8
2018-05-09T05:33:18.465Z,18.8
2018-05-09T05:34:08.539Z,18.8
2018-05-09T05:34:58.023Z,18.8
2018-05-09T05:35:48.606Z,18.8
2018-05-09T05:36:38.720Z,18.8
2018-05-09T05:37:29.007Z,18.8
2018-05-09T05:38:18.332Z,18.8
2018-05-09T05:40:49.283Z,18.8
2018-05-09T05:41:38.830Z,18.8
2018-05-09T05:42:28.306Z,18.8
2018-05-09T05:43:18.937Z,18.8
2018-05-09T05:44:09.013Z,18.8
2018-05-09T05:44:59.888Z,18.8
2018-05-09T05:45:48.581Z,18.8
2018-05-09T05:46:38.952Z,18.8
2018-05-09T05:47:28.966Z,18.8
2018-05-09T05:48:19.902Z,18.8
2018-05-09T05:49:08.568Z,18.8
2018-05-09T05:49:59.402Z,18.8
2018-05-09T05:50:50.100Z,18.8
2018-05-09T05:51:40.141Z,18.8
2018-05-09T05:52:28.764Z,18.8
2018-05-09T05:53:19.475Z,18.8
2018-05-09T05:54:09.549Z,18.8
2018-05-09T05:54:59.871Z,18.8
2018-05-09T05:55:50.147Z,18.8
2018-05-09T05:56:39.901Z,18.8
2018-05-09T05:57:30.218Z,18.8
2018-05-09T05:58:20.619Z,18.8
2018-05-09T05:59:10.680Z,18.8
2018-05-09T06:00:00.193Z,18.8
2018-05-09T06:00:50.792Z,18.8
2018-05-09T06:01:40.080Z,18.8
2018-05-09T06:02:30.330Z,18.8
2018-05-09T06:03:19.660Z,18.8
2018-05-09T06:04:10.753Z,18.8
2018-05-09T06:05:00.542Z,18.8
2018-05-09T06:05:50.899Z,18.8
2018-05-09T06:06:40.424Z,18.8
2018-05-09T06:07:29.943Z,18.8
2018-05-09T06:08:21.050Z,18.8
2018-05-09T06:09:10.679Z,18.8
2018-05-09T06:10:00.988Z,18.8
2018-05-09T06:10:50.725Z,18.8
2018-05-09T06:11:40.536Z,18.8
2018-05-09T06:12:31.126Z,18.8
2018-05-09T06:13:21.264Z,18.8
2018-05-09T06:14:10.962Z,18.8
2018-05-09T06:15:00.990Z,18.8
2018-05-09T06:15:50.750Z,18.8
2018-05-09T06:16:41.504Z,18.8
2018-05-09T06:17:31.538Z,18.8
2018-05-09T06:18:21.799Z,18.8
2018-05-09T06:19:11.927Z,18.8
2018-05-09T06:20:01.656Z,18.8
2018-05-09T06:20:51.765Z,18.8
2018-05-09T06:21:42.105Z,18.8
2018-05-09T06:22:31.339Z,18.8
2018-05-09T06:23:21.462Z,18.8
2018-05-09T06:24:13.891Z,18.8
2018-05-09T06:25:02.392Z,18.8
2018-05-09T06:25:51.561Z,18.8
2018-05-09T06:26:42.166Z,18.8
2018-05-09T06:27:32.273Z,18.8
2018-05-09T06:28:22.605Z,18.8
2018-05-09T06:29:12.669Z,18.8
2018-05-09T06:30:02.183Z,18.8
2018-05-09T06:30:52.861Z,18.8
2018-05-09T06:31:42.298Z,18.8
2018-05-09T06:32:32.446Z,18.8
2018-05-09T06:33:22.227Z,18.8
2018-05-09T06:34:12.776Z,18.8
2018-05-09T06:35:02.877Z,18.8
2018-05-09T06:35:52.356Z,18.8
2018-05-09T06:36:42.960Z,18.8
2018-05-09T06:37:33.574Z,18.8
2018-05-09T06:38:23.637Z,18.8
2018-05-09T06:39:12.650Z,18.8
2018-05-09T06:40:03.284Z,18.8
2018-05-09T06:40:53.377Z,18.8
2018-05-09T06:41:44.494Z,18.8
2018-05-09T06:42:33.377Z,18.8
2018-05-09T06:43:23.753Z,18.8
2018-05-09T06:44:12.431Z,18.8
2018-05-09T06:45:03.321Z,18.8
2018-05-09T06:45:53.109Z,18.8
2018-05-09T06:46:43.596Z,18.8
2018-05-09T06:47:33.908Z,18.8
2018-05-09T06:48:23.584Z,18.8
2018-05-09T06:49:14.178Z,18.8
2018-05-09T06:50:05.116Z,18.8
2018-05-09T06:50:53.768Z,18.8
2018-05-09T06:51:44.144Z,18.8
2018-05-09T06:52:33.890Z,18.8
2018-05-09T06:53:23.723Z,18.8
2018-05-09T06:54:13.284Z,18.8
2018-05-09T06:55:04.694Z,18.8
2018-05-09T06:55:53.932Z,18.8
2018-05-09T06:56:44.221Z,18.8
2018-05-09T06:57:34.288Z,18.8
2018-05-09T06:58:24.623Z,18.8
2018-05-09T06:59:15.202Z,18.8
2018-05-09T07:00:05.368Z,18.8
2018-05-09T07:00:54.625Z,18.8
2018-05-09T07:01:44.941Z,18.8
2018-05-09T07:02:35.245Z,18.8
2018-05-09T07:03:25.092Z,18.8
2018-05-09T07:04:15.645Z,18.8
2018-05-09T07:05:05.275Z,18.8
2018-05-09T07:05:55.203Z,18.8
2018-05-09T07:06:51.431Z,18.8
2018-05-09T07:07:35.320Z,18.8
2018-05-09T07:08:25.696Z,18.8
2018-05-09T07:09:15.446Z,18.8
2018-05-09T07:10:04.967Z,18.8
2018-05-09T07:10:55.998Z,18.8
2018-05-09T07:11:45.218Z,18.8
2018-05-09T07:12:36.186Z,18.8
2018-05-09T07:13:25.802Z,18.8
2018-05-09T07:14:15.958Z,18.8
2018-05-09T07:15:05.874Z,18.8
2018-05-09T07:15:55.681Z,18.8
2018-05-09T07:16:46.025Z,18.8
2018-05-09T07:17:35.790Z,18.8
2018-05-09T07:18:25.840Z,18.8
2018-05-09T07:19:16.280Z,18.8
2018-05-09T07:20:06.292Z,18.8
2018-05-09T07:20:56.073Z,18.8
2018-05-09T07:21:45.833Z,18.8
2018-05-09T07:22:36.486Z,18.8
2018-05-09T07:23:26.762Z,18.8
2018-05-09T07:24:16.613Z,18.8
2018-05-09T07:25:06.562Z,18.8
2018-05-09T07:25:56.147Z,18.8
2018-05-09T07:26:47.026Z,18.8
2018-05-09T07:27:36.818Z,18.8
2018-05-09T07:28:27.212Z,18.8
2018-05-09T07:29:16.696Z,18.8
2018-05-09T07:30:06.767Z,18.8
2018-05-09T07:30:57.641Z,18.8
2018-05-09T07:31:47.089Z,18.8
2018-05-09T07:32:37.766Z,18.8
2018-05-09T07:33:27.347Z,18.8
2018-05-09T07:34:17.624Z,18.8
2018-05-09T07:35:08.000Z,18.8
2018-05-09T07:35:57.096Z,18.8
2018-05-09T07:36:47.640Z,18.8
2018-05-09T07:37:38.136Z,18.8
2018-05-09T07:38:27.107Z,18.8
2018-05-09T07:39:17.252Z,18.8
2018-05-09T07:40:08.409Z,18.8
2018-05-09T07:40:57.655Z,18.8
2018-05-09T07:41:47.724Z,18.8
2018-05-09T07:42:38.262Z,18.8
2018-05-09T07:43:28.312Z,18.8
2018-05-09T07:44:16.858Z,18.8
2018-05-09T07:45:08.205Z,18.8
2018-05-09T07:45:58.266Z,18.8
2018-05-09T07:46:48.304Z,18.8
2018-05-09T07:47:39.772Z,18.8
2018-05-09T07:48:28.187Z,18.8
2018-05-09T07:49:17.709Z,18.8
2018-05-09T07:50:08.625Z,18.8
2018-05-09T07:50:58.969Z,18.8
2018-05-09T07:51:48.679Z,18.8
2018-05-09T07:52:39.034Z,18.8
2018-05-09T07:53:28.634Z,18.8
2018-05-09T07:54:18.965Z,18.8
2018-05-09T07:55:08.476Z,18.8
2018-05-09T07:55:59.571Z,18.8
2018-05-09T07:56:49.291Z,18.8
2018-05-09T07:57:38.156Z,18.8
2018-05-09T07:58:29.496Z,18.8
2018-05-09T07:59:19.530Z,18.8
2018-05-09T08:00:09.951Z,18.8
2018-05-09T08:00:59.355Z,18.8
2018-05-09T08:01:49.452Z,18.8
2018-05-09T08:02:39.275Z,18.8
2018-05-09T08:03:28.681Z,18.8
2018-05-09T08:04:19.435Z,18.8
2018-05-09T08:05:09.535Z,18.8
2018-05-09T08:05:59.720Z,18.8
2018-05-09T08:06:49.399Z,18.8
2018-05-09T08:07:39.870Z,18.8
2018-05-09T08:08:30.535Z,18.8
2018-05-09T08:09:20.646Z,18.8
2018-05-09T08:10:09.574Z,18.8
2018-05-09T08:10:59.907Z,18.8
2018-05-09T08:11:50.775Z,18.8
2018-05-09T08:12:39.054Z,18.8
2018-05-09T08:13:29.785Z,18.8
2018-05-09T08:14:19.654Z,18.8
2018-05-09T08:15:09.515Z,18.8
2018-05-09T08:15:59.890Z,18.8
2018-05-09T08:16:49.811Z,18.8
2018-05-09T08:17:40.706Z,18.8
2018-05-09T08:18:30.060Z,18.8
2018-05-09T08:19:20.843Z,18.8
2018-05-09T08:20:10.124Z,18.8
2018-05-09T08:21:01.468Z,18.8
2018-05-09T08:21:51.288Z,18.8
2018-05-09T08:22:40.869Z,18.8
2018-05-09T08:23:31.812Z,18.8
2018-05-09T08:24:21.782Z,18.8
2018-05-09T08:25:11.839Z,18.8
2018-05-09T08:26:01.862Z,18.8
2018-05-09T08:26:50.044Z,18.8
2018-05-09T08:27:41.507Z,18.8
2018-05-09T08:28:30.842Z,18.8
2018-05-09T08:29:22.131Z,18.8
2018-05-09T08:30:12.379Z,18.8
2018-05-09T08:31:01.561Z,18.8
2018-05-09T08:31:51.246Z,18.8
2018-05-09T08:32:42.195Z,18.8
2018-05-09T08:33:31.651Z,18.8
2018-05-09T08:34:21.737Z,18.8
2018-05-09T08:35:12.362Z,18.8
2018-05-09T08:36:02.693Z,18.8
2018-05-09T08:36:52.592Z,18.8
2018-05-09T08:37:42.403Z,18.8
2018-05-09T08:38:32.246Z,18.8
2018-05-09T08:39:22.382Z,18.9
2018-05-09T08:40:13.076Z,18.8
2018-05-09T08:41:03.112Z,18.9
2018-05-09T08:41:52.852Z,18.8
2018-05-09T08:42:42.976Z,18.8
2018-05-09T08:43:34.912Z,18.8
2018-05-09T08:44:22.733Z,18.8
2018-05-09T08:45:12.884Z,18.8
2018-05-09T08:46:02.052Z,18.9
2018-05-09T08:46:52.649Z,18.9
2018-05-09T08:47:43.251Z,18.8
2018-05-09T08:48:32.513Z,18.9
2018-05-09T08:49:24.740Z,18.9
2018-05-09T08:50:13.739Z,18.8
2018-05-09T08:51:03.811Z,18.9
2018-05-09T08:51:53.627Z,18.9
2018-05-09T08:52:43.679Z,18.9
2018-05-09T08:53:34.024Z,18.9
2018-05-09T08:54:23.838Z,18.9
2018-05-09T08:55:13.856Z,18.9
2018-05-09T08:56:03.629Z,18.9
2018-05-09T08:56:54.028Z,18.9
2018-05-09T08:57:43.491Z,18.9
2018-05-09T08:58:34.426Z,18.8
2018-05-09T08:59:23.626Z,18.9
2018-05-09T09:00:13.731Z,18.9
2018-05-09T09:01:04.359Z,18.8
2018-05-09T09:01:52.273Z,18.9
2018-05-09T09:02:43.918Z,18.9
2018-05-09T09:03:34.521Z,18.9
2018-05-09T09:04:25.226Z,18.9
2018-05-09T09:05:13.820Z,18.9
2018-05-09T09:06:04.157Z,18.9
2018-05-09T09:06:54.762Z,18.9
2018-05-09T09:07:45.176Z,18.9
2018-05-09T09:08:35.166Z,18.9
2018-05-09T09:09:24.466Z,18.9
2018-05-09T09:10:14.563Z,18.9
2018-05-09T09:11:04.329Z,18.9
2018-05-09T09:11:55.144Z,18.9
2018-05-09T09:12:45.305Z,18.9
2018-05-09T09:13:34.997Z,18.9
2018-05-09T09:14:25.223Z,18.9
2018-05-09T09:15:15.607Z,18.9
2018-05-09T09:16:05.193Z,18.9
2018-05-09T09:16:55.487Z,18.9
2018-05-09T09:17:45.577Z,18.9
2018-05-09T09:18:36.198Z,18.9
2018-05-09T09:19:25.484Z,18.9
2018-05-09T09:20:15.875Z,18.9
2018-05-09T09:21:05.534Z,18.9
2018-05-09T09:21:56.004Z,18.9
2018-05-09T09:22:46.054Z,18.9
2018-05-09T09:23:35.502Z,18.9
2018-05-09T09:24:25.306Z,18.9
2018-05-09T09:25:15.362Z,18.9
2018-05-09T09:26:06.242Z,18.9
2018-05-09T09:26:56.567Z,18.9
2018-05-09T09:27:45.843Z,18.9
2018-05-09T09:28:36.154Z,18.9
2018-05-09T09:29:26.705Z,18.9
2018-05-09T09:30:16.918Z,18.9
2018-05-09T09:31:06.421Z,18.9
2018-05-09T09:31:56.725Z,18.9
2018-05-09T09:32:46.822Z,18.9
2018-05-09T09:33:36.883Z,18.9
2018-05-09T09:34:26.354Z,18.9
2018-05-09T09:35:16.434Z,18.9
2018-05-09T09:36:06.526Z,18.9
2018-05-09T09:36:56.846Z,18.9
2018-05-09T09:37:46.942Z,18.9
2018-05-09T09:38:36.958Z,18.9
2018-05-09T09:39:27.381Z,18.9
2018-05-09T09:40:17.468Z,18.9
2018-05-09T09:41:07.208Z,18.9
2018-05-09T09:41:57.597Z,18.9
2018-05-09T09:42:46.760Z,18.9
2018-05-09T09:43:37.621Z,18.9
2018-05-09T09:44:26.936Z,18.9
2018-05-09T09:45:17.706Z,18.9
2018-05-09T09:46:07.216Z,18.9
2018-05-09T09:46:58.128Z,18.9
2018-05-09T09:47:47.925Z,18.9
2018-05-09T09:48:38.014Z,18.9
2018-05-09T09:49:28.351Z,18.9
2018-05-09T09:50:18.387Z,18.9
2018-05-09T09:51:08.176Z,18.9
2018-05-09T09:51:58.039Z,18.9
2018-05-09T09:52:48.297Z,18.9
2018-05-09T09:53:38.673Z,18.9
2018-05-09T09:54:27.717Z,18.9
2018-05-09T09:55:18.518Z,18.9
2018-05-09T09:56:07.751Z,18.9
2018-05-09T09:56:58.867Z,18.9
2018-05-09T09:57:48.117Z,18.9
2018-05-09T09:58:38.811Z,18.9
2018-05-09T09:59:29.231Z,18.9
2018-05-09T10:00:18.324Z,18.9
2018-05-09T10:01:09.244Z,18.9
2018-05-09T10:01:59.265Z,18.9
2018-05-09T10:02:48.806Z,18.9
2018-05-09T10:03:38.878Z,18.9
2018-05-09T10:04:29.584Z,18.9
2018-05-09T10:05:19.681Z,18.9
2018-05-09T10:06:09.048Z,18.9
2018-05-09T10:06:59.404Z,18.9
2018-05-09T10:07:49.729Z,18.9
2018-05-09T10:08:39.240Z,18.9
2018-05-09T10:09:29.317Z,18.9
2018-05-09T10:10:19.372Z,18.9
2018-05-09T10:11:09.134Z,18.9
2018-05-09T10:11:59.490Z,18.9
2018-05-09T10:12:49.897Z,18.9
2018-05-09T10:13:40.251Z,18.9
2018-05-09T10:14:29.700Z,18.9
2018-05-09T10:15:19.247Z,18.9
2018-05-09T10:16:11.720Z,18.9
2018-05-09T10:16:59.896Z,18.9
2018-05-09T10:17:49.392Z,18.9
2018-05-09T10:18:39.969Z,18.9
2018-05-09T10:19:30.309Z,18.9
2018-05-09T10:20:20.745Z,18.9
2018-05-09T10:21:10.021Z,18.9
2018-05-09T10:22:00.545Z,18.9
2018-05-09T10:22:50.924Z,18.9
2018-05-09T10:23:40.651Z,18.9
2018-05-09T10:24:30.445Z,18.9
2018-05-09T10:25:20.037Z,18.9
2018-05-09T10:26:11.246Z,18.9
2018-05-09T10:27:00.701Z,18.9
2018-05-09T10:27:51.027Z,18.9
2018-05-09T10:28:41.040Z,18.9
2018-05-09T10:29:31.124Z,18.9
2018-05-09T10:30:20.620Z,18.9
2018-05-09T10:31:11.065Z,18.9
2018-05-09T10:32:01.266Z,18.9
2018-05-09T10:32:51.393Z,18.9
2018-05-09T10:33:40.951Z,18.9
2018-05-09T10:34:31.842Z,18.9
2018-05-09T10:35:21.069Z,18.9
2018-05-09T10:36:11.412Z,18.9
2018-05-09T10:37:01.048Z,18.9
2018-05-09T10:37:51.762Z,19
2018-05-09T10:38:42.112Z,19
2018-05-09T10:39:31.144Z,19
2018-05-09T10:40:21.661Z,19
2018-05-09T10:41:12.279Z,19
2018-05-09T10:42:02.122Z,19
2018-05-09T10:42:51.854Z,19
2018-05-09T10:43:41.419Z,19
2018-05-09T10:44:32.559Z,19
2018-05-09T10:45:22.684Z,19
2018-05-09T10:46:12.254Z,19
2018-05-09T10:47:02.224Z,19
2018-05-09T10:47:51.981Z,19
2018-05-09T10:48:42.080Z,19
2018-05-09T10:49:32.632Z,19
2018-05-09T10:50:22.741Z,19
2018-05-09T10:51:12.247Z,19
2018-05-09T10:52:02.899Z,19
2018-05-09T10:52:52.938Z,19
2018-05-09T10:53:42.734Z,19
2018-05-09T10:54:32.797Z,18.9
2018-05-09T10:55:23.376Z,19
2018-05-09T10:56:13.435Z,19
2018-05-09T10:57:03.237Z,18.9
2018-05-09T10:57:53.020Z,18.9
2018-05-09T10:58:43.399Z,19
2018-05-09T10:59:33.499Z,19
2018-05-09T11:00:23.505Z,19
2018-05-09T11:01:13.037Z,19
2018-05-09T11:02:03.640Z,19
2018-05-09T11:02:52.555Z,19
2018-05-09T11:03:43.504Z,19
2018-05-09T11:04:33.532Z,19
2018-05-09T11:05:23.888Z,19
2018-05-09T11:06:13.687Z,19
2018-05-09T11:07:03.455Z,19
2018-05-09T11:07:53.547Z,19
2018-05-09T11:08:43.598Z,19
2018-05-09T11:09:34.217Z,19
2018-05-09T11:10:24.290Z,19
2018-05-09T11:11:13.777Z,19
2018-05-09T11:12:04.698Z,19.1
2018-05-09T11:12:54.729Z,19.1
2018-05-09T11:13:44.270Z,19.1
2018-05-09T11:14:34.872Z,19.1
2018-05-09T11:15:24.935Z,19.1
2018-05-09T11:16:14.425Z,19.1
2018-05-09T11:17:04.762Z,19.1
2018-05-09T11:17:54.258Z,19.1
2018-05-09T11:18:44.374Z,19.1
2018-05-09T11:19:34.524Z,19.1
2018-05-09T11:20:24.556Z,19.1
2018-05-09T11:21:15.398Z,19.1
2018-05-09T11:22:05.208Z,19
2018-05-09T11:22:55.593Z,19.1
2018-05-09T11:23:45.356Z,19.1
2018-05-09T11:24:36.560Z,19.1
2018-05-09T11:25:25.128Z,19
2018-05-09T11:26:15.496Z,19
2018-05-09T11:27:05.540Z,19
2018-05-09T11:27:55.343Z,19
2018-05-09T11:28:45.207Z,19
2018-05-09T11:29:35.811Z,19
2018-05-09T11:30:25.536Z,19
2018-05-09T11:31:15.893Z,19
2018-05-09T11:32:05.471Z,19
2018-05-09T11:32:56.022Z,19
2018-05-09T11:33:46.108Z,19.1
2018-05-09T11:34:36.509Z,19
2018-05-09T11:35:26.459Z,19.1
2018-05-09T11:36:15.797Z,19.1
2018-05-09T11:37:06.055Z,19.1
2018-05-09T11:37:55.869Z,19.1
2018-05-09T11:38:46.519Z,19.1
2018-05-09T11:39:36.040Z,19.1
2018-05-09T11:40:26.606Z,19.1
2018-05-09T11:41:16.627Z,19.1
2018-05-09T11:42:06.198Z,19.1
2018-05-09T11:42:56.540Z,19.1
2018-05-09T11:43:47.158Z,19.1
2018-05-09T11:44:36.943Z,19.1
2018-05-09T11:45:27.007Z,19.1
2018-05-09T11:46:17.374Z,19.1
2018-05-09T11:47:06.297Z,19.1
2018-05-09T11:47:57.132Z,19.1
2018-05-09T11:48:46.684Z,19.1
2018-05-09T11:49:36.194Z,19.1
2018-05-09T11:50:27.728Z,19.1
2018-05-09T11:51:17.178Z,19.1
2018-05-09T11:52:07.504Z,19.1
2018-05-09T11:52:57.114Z,19.1
2018-05-09T11:53:47.403Z,19.1
2018-05-09T11:54:37.502Z,19.1
2018-05-09T11:55:27.210Z,19.1
2018-05-09T11:56:16.998Z,19.1
2018-05-09T11:57:07.854Z,19.1
2018-05-09T11:57:57.437Z,19.1
2018-05-09T11:58:47.975Z,19.1
2018-05-09T11:59:38.358Z,19.1
2018-05-09T12:00:27.847Z,19.1
2018-05-09T12:01:18.513Z,19.1
2018-05-09T12:02:08.430Z,19.1
2018-05-09T12:02:57.488Z,19.1
2018-05-09T12:03:48.156Z,19.1
2018-05-09T12:04:38.455Z,19.1
2018-05-09T12:05:28.289Z,19.1
2018-05-09T12:06:17.876Z,19.1
2018-05-09T12:07:08.973Z,19.1
2018-05-09T12:07:58.523Z,19.1
2018-05-09T12:08:48.558Z,19.1
2018-05-09T12:09:38.313Z,19.1
2018-05-09T12:10:30.839Z,19.1
2018-05-09T12:11:19.311Z,19.1
2018-05-09T12:12:09.045Z,19.1
2018-05-09T12:12:58.327Z,19.1
2018-05-09T12:13:49.468Z,19.1
2018-05-09T12:14:38.406Z,19.1
2018-05-09T12:15:28.467Z,19.1
2018-05-09T12:16:18.784Z,19.1
2018-05-09T12:17:09.687Z,19.1
2018-05-09T12:17:59.487Z,19.1
2018-05-09T12:18:49.304Z,19.1
2018-05-09T12:19:38.512Z,19.1
2018-05-09T12:20:29.533Z,19.1
2018-05-09T12:21:19.255Z,19.1
2018-05-09T12:22:09.640Z,19.1
2018-05-09T12:23:00.053Z,19.1
2018-05-09T12:23:48.929Z,19.1
2018-05-09T12:24:41.538Z,19.1
2018-05-09T12:25:29.526Z,19.1
2018-05-09T12:26:20.200Z,19.1
2018-05-09T12:27:10.022Z,19.1
2018-05-09T12:28:00.310Z,19.1
2018-05-09T12:28:50.656Z,19.1
2018-05-09T12:29:40.250Z,19.1
2018-05-09T12:30:29.949Z,19.1
2018-05-09T12:31:20.576Z,19.1
2018-05-09T12:32:10.026Z,19.1
2018-05-09T12:33:00.982Z,19.1
2018-05-09T12:33:50.755Z,19.1
2018-05-09T12:34:41.207Z,19.1
2018-05-09T12:35:30.576Z,19.1
2018-05-09T12:36:20.564Z,19.1
2018-05-09T12:37:11.287Z,19.1
2018-05-09T12:38:01.309Z,19.1
2018-05-09T12:38:50.902Z,19.1
2018-05-09T12:39:40.644Z,19.1
2018-05-09T12:40:31.546Z,19.1
2018-05-09T12:41:21.357Z,19.1
2018-05-09T12:42:10.856Z,19.1
2018-05-09T12:43:01.228Z,19.1
2018-05-09T12:43:51.249Z,19.1
2018-05-09T12:44:41.372Z,19.1
2018-05-09T12:45:31.383Z,19.1
2018-05-09T12:46:21.107Z,19.2
2018-05-09T12:47:11.735Z,19.1
2018-05-09T12:48:02.146Z,19.1
2018-05-09T12:48:54.936Z,19.1
2018-05-09T12:49:41.456Z,19.2
2018-05-09T12:50:31.843Z,19.2
2018-05-09T12:51:20.980Z,19.2
2018-05-09T12:52:11.932Z,19.2
2018-05-09T12:53:01.349Z,19.2
2018-05-09T12:53:52.339Z,19.2
2018-05-09T12:54:43.617Z,19.2
2018-05-09T12:55:32.712Z,19.2
2018-05-09T12:56:22.464Z,19.2
2018-05-09T12:57:12.806Z,19.2
2018-05-09T12:58:02.608Z,19.2
2018-05-09T12:58:52.679Z,19.2
2018-05-09T12:59:42.971Z,19.2
2018-05-09T13:00:34.431Z,19.2
2018-05-09T13:01:22.043Z,19.2
2018-05-09T13:02:12.673Z,19.2
2018-05-09T13:03:02.477Z,19.2
2018-05-09T13:03:52.875Z,19.2
2018-05-09T13:04:43.554Z,19.2
2018-05-09T13:05:32.987Z,19.2
2018-05-09T13:06:23.574Z,19.2
2018-05-09T13:07:13.598Z,19.2
2018-05-09T13:08:02.354Z,19.2
2018-05-09T13:08:53.231Z,19.2
2018-05-09T13:09:42.709Z,19.2
2018-05-09T13:10:33.616Z,19.2
2018-05-09T13:11:23.241Z,19.2
2018-05-09T13:12:13.153Z,19.2
2018-05-09T13:13:04.091Z,19.2
2018-05-09T13:13:54.111Z,19.2
2018-05-09T13:14:44.203Z,19.2
2018-05-09T13:15:33.992Z,19.3
2018-05-09T13:16:24.122Z,19.3
2018-05-09T13:17:13.262Z,19.3
2018-05-09T13:18:03.473Z,19.3
2018-05-09T13:18:52.366Z,19.3
2018-05-09T13:19:43.644Z,19.3
2018-05-09T13:20:33.518Z,19.3
2018-05-09T13:21:23.623Z,19.3
2018-05-09T13:22:13.139Z,19.3
2018-05-09T13:23:03.178Z,19.3
2018-05-09T13:23:53.892Z,19.3
2018-05-09T13:24:43.690Z,19.3
2018-05-09T13:25:33.780Z,19.3
2018-05-09T13:26:23.817Z,19.3
2018-05-09T13:27:14.149Z,19.3
2018-05-09T13:28:04.464Z,19.3
2018-05-09T13:28:54.804Z,19.3
2018-05-09T13:29:44.638Z,19.3
2018-05-09T13:30:34.102Z,19.3
2018-05-09T13:31:23.663Z,19.3
2018-05-09T13:32:12.946Z,19.3
2018-05-09T13:33:03.893Z,19.3
2018-05-09T13:33:55.125Z,19.3
2018-05-09T13:34:44.508Z,19.3
2018-05-09T13:35:34.233Z,19.3
2018-05-09T13:36:24.560Z,19.3
2018-05-09T13:37:13.938Z,19.3
2018-05-09T13:38:05.462Z,19.3
2018-05-09T13:38:55.784Z,19.3
2018-05-09T13:39:46.187Z,19.3
2018-05-09T13:40:35.897Z,19.3
2018-05-09T13:41:25.501Z,19.3
2018-05-09T13:42:15.994Z,19.3
2018-05-09T13:43:06.395Z,19.3
2018-05-09T13:43:56.151Z,19.3
2018-05-09T13:44:45.944Z,19.4
2018-05-09T13:45:36.253Z,19.4
2018-05-09T13:46:28.175Z,19.4
2018-05-09T13:47:15.550Z,19.4
2018-05-09T13:48:06.881Z,19.4
2018-05-09T13:48:56.786Z,19.4
2018-05-09T13:49:46.565Z,19.4
2018-05-09T13:50:36.338Z,19.4
2018-05-09T13:51:26.454Z,19.4
2018-05-09T13:52:16.543Z,19.3